Time;durP1;ratioP1;P1;durP2;ratioP2;P2;SDS_P1;SDS_P2;PMS_P1;PMS_P2;Temp;Humidity;BMP_temperature;BMP_pressure;BME280_temperature;BME280_humidity;BME280_pressure;Samples;Min_cycle;Max_cycle;Signal;HPM_P1;HPM_P2
2021/08/09 00:02:41;;;;;;;15.60;3.80;;;;;;;18.56;76.77;99077.41;2199697;81;21108;-63
2021/08/09 00:05:42;;;;;;;13.78;4.20;;;;;;;18.53;76.94;99064.37;2197832;80;21045;-62
2021/08/09 00:08:44;;;;;;;17.45;4.10;;;;;;;18.50;76.98;99048.25;2192618;80;21009;-62
2021/08/09 00:11:45;;;;;;;16.55;4.12;;;;;;;18.48;77.20;99047.53;2195321;80;21087;-62
2021/08/09 00:14:47;;;;;;;15.18;4.37;;;;;;;18.49;77.07;99029.30;2201386;80;21550;-63
2021/08/09 00:17:48;;;;;;;15.72;4.42;;;;;;;18.51;77.50;99008.74;2200984;80;21052;-63
2021/08/09 00:20:52;;;;;;;15.20;4.10;;;;;;;18.35;77.50;99002.66;2205380;80;20974;-63
2021/08/09 00:23:53;;;;;;;11.90;3.80;;;;;;;18.35;77.85;99021.75;2167536;80;21495;-62
2021/08/09 00:26:54;;;;;;;14.07;3.98;;;;;;;18.32;77.71;99034.80;2186805;80;21072;-63
2021/08/09 00:29:56;;;;;;;14.90;3.95;;;;;;;18.13;78.22;99045.38;2204909;80;20981;-63
2021/08/09 00:32:57;;;;;;;16.00;4.75;;;;;;;18.04;78.62;99054.17;2206413;80;21092;-63
2021/08/09 00:35:59;;;;;;;13.40;3.72;;;;;;;18.09;78.62;99055.45;2205133;80;21005;-63
2021/08/09 00:39:00;;;;;;;13.20;4.12;;;;;;;18.24;78.25;99060.37;2207338;80;21649;-63
2021/08/09 00:42:02;;;;;;;;;;;;;;;18.32;77.76;99065.84;2208152;80;21100;-63
2021/08/09 00:45:04;;;;;;;28.60;9.53;;;;;;;18.26;77.66;99072.53;2200050;80;20105;-63
2021/08/09 00:48:05;;;;;;;37.65;16.57;;;;;;;18.24;77.95;99065.17;2201395;80;20996;-63
2021/08/09 00:51:07;;;;;;;14.25;4.15;;;;;;;18.24;78.10;99057.20;2239411;79;21581;-63
2021/08/09 00:54:10;;;;;;;16.30;5.28;;;;;;;18.39;78.39;99059.47;2245495;79;20972;-64
2021/08/09 00:57:11;;;;;;;15.13;4.45;;;;;;;18.40;78.09;99046.55;2236794;79;21005;-63
2021/08/09 01:00:13;;;;;;;15.60;4.08;;;;;;;18.30;78.63;99041.22;2233645;79;21078;-64
2021/08/09 01:03:15;;;;;;;14.70;4.53;;;;;;;18.12;79.01;99041.90;2197770;81;21044;-63
2021/08/09 01:06:16;;;;;;;15.15;4.47;;;;;;;17.90;79.23;99047.39;2201104;80;20981;-64
2021/08/09 01:09:19;;;;;;;12.53;4.00;;;;;;;17.86;79.14;99050.81;2187648;80;21067;-64
2021/08/09 01:12:20;;;;;;;16.55;4.42;;;;;;;17.87;78.97;99051.64;2207279;79;20993;-64
2021/08/09 01:15:22;;;;;;;17.70;5.25;;;;;;;17.88;78.56;99046.20;2198451;80;21615;-63
2021/08/09 01:18:23;;;;;;;18.80;6.00;;;;;;;17.84;78.62;99047.44;2201392;80;21009;-63
2021/08/09 01:21:25;;;;;;;15.08;4.85;;;;;;;17.81;78.76;99049.03;2197033;80;21103;-63
2021/08/09 01:24:26;;;;;;;17.10;4.92;;;;;;;17.82;78.76;99049.40;2196050;80;21048;-63
2021/08/09 01:27:29;;;;;;;16.45;4.30;;;;;;;17.78;78.75;99049.31;2209339;80;21036;-63
2021/08/09 01:30:31;;;;;;;17.57;4.50;;;;;;;17.78;78.74;99043.50;2202876;80;21004;-64
2021/08/09 01:33:32;;;;;;;13.83;4.35;;;;;;;17.83;78.87;99049.77;2199296;80;21531;-63
2021/08/09 01:36:34;;;;;;;15.40;4.30;;;;;;;17.87;78.85;99059.13;2200868;80;20989;-63
2021/08/09 01:39:35;;;;;;;16.90;4.25;;;;;;;17.89;78.83;99072.27;2200749;80;21046;-63
2021/08/09 01:42:37;;;;;;;19.95;5.80;;;;;;;17.90;78.69;99067.29;2200301;81;21030;-64
2021/08/09 01:45:38;;;;;;;16.67;3.95;;;;;;;17.84;78.90;99062.89;2200312;80;20996;-63
2021/08/09 01:48:40;;;;;;;16.55;4.30;;;;;;;17.53;79.92;99075.31;2198372;80;21519;-64
2021/08/09 01:51:41;;;;;;;13.93;4.00;;;;;;;17.14;80.42;99065.33;2202589;80;20973;-63
2021/08/09 01:54:43;;;;;;;16.32;3.98;;;;;;;17.00;81.04;99055.05;2198252;81;21579;-63
2021/08/09 01:57:44;;;;;;;12.18;3.95;;;;;;;16.98;81.28;99054.32;2192810;80;20989;-63
2021/08/09 02:00:46;;;;;;;14.60;3.67;;;;;;;17.06;80.60;99066.95;2209368;79;20992;-64
2021/08/09 02:03:47;;;;;;;16.02;4.28;;;;;;;17.12;80.13;99062.44;2215348;79;21067;-63
2021/08/09 02:06:48;;;;;;;13.98;4.10;;;;;;;17.12;80.03;99067.74;2206762;80;21000;-64
2021/08/09 02:09:50;;;;;;;14.90;4.10;;;;;;;17.19;80.00;99068.91;2213248;79;21479;-64
2021/08/09 02:12:51;;;;;;;14.17;3.87;;;;;;;17.17;79.85;99066.02;2212383;79;21024;-63
2021/08/09 02:15:53;;;;;;;16.57;4.17;;;;;;;17.17;79.48;99074.84;2196533;81;21451;-64
2021/08/09 02:18:54;;;;;;;15.60;4.75;;;;;;;17.14;79.62;99081.23;2203190;80;21059;-64
2021/08/09 02:21:56;;;;;;;21.77;6.37;;;;;;;17.12;79.46;99077.02;2199470;80;21016;-63
2021/08/09 02:24:58;;;;;;;25.75;6.55;;;;;;;17.06;79.41;99092.12;2194633;80;21020;-63
2021/08/09 02:27:59;;;;;;;22.65;7.92;;;;;;;17.02;79.63;99104.77;2201315;80;20973;-63
2021/08/09 02:31:01;;;;;;;19.43;6.40;;;;;;;17.03;79.32;99107.78;2199631;80;21479;-63
2021/08/09 02:34:02;;;;;;;17.83;5.07;;;;;;;16.99;79.87;99108.17;2195854;80;21263;-63
2021/08/09 02:37:04;;;;;;;24.87;8.40;;;;;;;17.02;80.07;99110.06;2196917;80;21437;-63
2021/08/09 02:40:05;;;;;;;18.20;5.90;;;;;;;17.00;79.17;99115.16;2201027;80;22203;-63
2021/08/09 02:43:06;;;;;;;18.55;5.65;;;;;;;16.90;79.09;99127.83;2199116;80;20992;-64
2021/08/09 02:46:08;;;;;;;21.87;6.53;;;;;;;16.81;78.94;99143.14;2199769;80;21562;-64
2021/08/09 02:49:09;;;;;;;22.27;5.47;;;;;;;16.72;79.11;99142.55;2199351;80;21246;-63
2021/08/09 02:52:11;;;;;;;18.02;5.20;;;;;;;16.66;79.32;99144.38;2201042;80;21001;-63
2021/08/09 02:55:12;;;;;;;14.78;4.65;;;;;;;16.63;79.51;99154.73;2201552;80;21005;-63
2021/08/09 02:58:13;;;;;;;11.90;3.93;;;;;;;16.55;79.61;99171.72;2199966;80;20988;-63
2021/08/09 03:01:15;;;;;;;15.73;4.40;;;;;;;16.55;79.61;99171.72;2202141;80;21694;-63
2021/08/09 03:04:16;;;;;;;13.70;3.90;;;;;;;16.52;79.82;99173.29;2201276;80;21067;-62
2021/08/09 03:07:18;;;;;;;14.90;3.80;;;;;;;16.52;79.66;99177.27;2200003;80;21016;-63
2021/08/09 03:10:19;;;;;;;13.10;3.98;;;;;;;16.47;79.63;99181.61;2203011;80;21521;-63
2021/08/09 03:13:21;;;;;;;15.07;4.17;;;;;;;16.40;80.00;99184.39;2197050;80;21001;-63
2021/08/09 03:16:22;;;;;;;14.98;4.22;;;;;;;16.40;80.00;99184.39;2202088;80;21492;-63
2021/08/09 03:19:24;;;;;;;13.72;3.70;;;;;;;16.43;79.55;99190.30;2209915;79;21000;-63
2021/08/09 03:22:25;;;;;;;12.03;3.53;;;;;;;16.37;79.42;99194.73;2198773;80;21040;-63
2021/08/09 03:25:27;;;;;;;15.35;3.90;;;;;;;16.30;79.69;99198.82;2200571;80;21095;-63
2021/08/09 03:28:28;;;;;;;12.73;4.10;;;;;;;16.32;79.95;99204.86;2192583;80;21043;-64
2021/08/09 03:31:29;;;;;;;13.07;3.87;;;;;;;16.34;79.65;99204.73;2201478;80;21464;-64
2021/08/09 03:34:31;;;;;;;9.10;3.20;;;;;;;16.36;79.80;99212.06;2200613;80;21083;-64
2021/08/09 03:37:32;;;;;;;12.80;4.00;;;;;;;16.35;79.62;99215.66;2197058;80;21383;-63
2021/08/09 03:40:35;;;;;;;10.30;3.40;;;;;;;16.38;79.85;99213.63;2192403;80;21029;-63
2021/08/09 03:43:37;;;;;;;15.10;4.28;;;;;;;16.31;79.76;99216.39;2192831;80;21800;-64
2021/08/09 03:46:38;;;;;;;17.33;5.03;;;;;;;16.38;79.68;99220.25;2194751;80;21027;-64
2021/08/09 03:49:40;;;;;;;12.93;4.40;;;;;;;16.40;79.36;99224.09;2202561;80;21091;-63
2021/08/09 03:52:41;;;;;;;14.93;4.43;;;;;;;16.34;79.39;99221.94;2203629;80;21678;-63
2021/08/09 03:55:43;;;;;;;19.70;6.13;;;;;;;16.35;79.47;99228.89;2226227;79;20989;-62
2021/08/09 03:58:44;;;;;;;23.25;8.98;;;;;;;16.36;79.77;99227.94;2233535;79;21529;-62
2021/08/09 04:01:48;;;;;;;16.23;5.80;;;;;;;16.42;79.62;99226.98;2230694;79;20985;-62
2021/08/09 04:04:49;;;;;;;16.77;4.97;;;;;;;16.59;79.91;99223.47;2203978;79;21427;-63
2021/08/09 04:07:51;;;;;;;18.77;5.57;;;;;;;16.78;79.74;99227.66;2235933;79;21519;-62
2021/08/09 04:10:52;;;;;;;21.42;7.85;;;;;;;16.93;79.49;99228.25;2237493;79;21040;-62
2021/08/09 04:13:57;;;;;;;19.77;6.60;;;;;;;17.10;79.19;99225.55;2231159;79;21436;-62
2021/08/09 04:16:57;;;;;;;18.80;6.30;;;;;;;17.14;78.90;99224.84;2186350;80;21040;-62
2021/08/09 04:19:59;;;;;;;16.50;5.43;;;;;;;17.23;79.12;99223.23;2200708;80;21076;-63
2021/08/09 04:23:00;;;;;;;21.85;9.18;;;;;;;17.36;78.95;99227.05;2199950;80;21000;-62
2021/08/09 04:26:02;;;;;;;19.60;5.17;;;;;;;17.40;78.73;99222.67;2208709;79;21439;-62
2021/08/09 04:29:03;;;;;;;18.43;5.17;;;;;;;17.43;78.90;99218.44;2203987;80;21232;-62
2021/08/09 04:32:05;;;;;;;17.30;4.67;;;;;;;17.30;79.01;99217.78;2189702;80;21695;-63
2021/08/09 04:35:06;;;;;;;18.30;5.00;;;;;;;17.16;79.85;99213.61;2195352;80;20972;-62
2021/08/09 04:38:07;;;;;;;19.73;5.40;;;;;;;17.11;80.52;99213.13;2215688;79;20991;-62
2021/08/09 04:41:09;;;;;;;17.97;5.10;;;;;;;17.07;80.71;99215.21;2207495;80;21487;-62
2021/08/09 04:44:13;;;;;;;19.10;5.50;;;;;;;17.09;80.79;99213.76;2203610;81;21289;-62
2021/08/09 04:47:14;;;;;;;16.73;5.05;;;;;;;17.15;80.82;99225.17;2183615;80;21285;-62
2021/08/09 04:50:15;;;;;;;17.15;5.03;;;;;;;17.23;80.69;99222.74;2203722;80;21559;-62
2021/08/09 04:53:16;;;;;;;17.60;5.00;;;;;;;17.36;80.40;99219.92;2183450;80;21078;-62
2021/08/09 04:56:18;;;;;;;18.73;4.75;;;;;;;17.41;80.45;99224.37;2195398;80;21094;-62
2021/08/09 04:59:19;;;;;;;19.80;5.33;;;;;;;17.52;80.20;99234.56;2205483;80;21024;-62
2021/08/09 05:02:21;;;;;;;14.20;4.35;;;;;;;17.64;80.38;99226.88;2200751;80;21112;-62
2021/08/09 05:05:23;;;;;;;14.68;4.45;;;;;;;17.71;79.45;99229.38;2199168;80;21009;-63
2021/08/09 05:08:24;;;;;;;14.53;4.20;;;;;;;17.78;79.36;99229.21;2201367;80;20966;-62
2021/08/09 05:11:26;;;;;;;14.53;4.22;;;;;;;17.84;79.27;99232.69;2201099;80;21498;-62
2021/08/09 05:14:27;;;;;;;16.23;4.25;;;;;;;17.92;78.45;99240.02;2203614;80;21302;-62
2021/08/09 05:17:28;;;;;;;14.05;3.98;;;;;;;17.91;78.35;99242.81;2207646;80;21096;-62
2021/08/09 05:20:30;;;;;;;15.13;4.37;;;;;;;17.96;78.11;99245.92;2207870;80;21009;-62
2021/08/09 05:23:32;;;;;;;12.43;3.67;;;;;;;18.04;78.08;99249.23;2198370;80;21079;-62
2021/08/09 05:26:33;;;;;;;14.58;3.77;;;;;;;18.07;77.51;99252.45;2206911;80;21101;-62
2021/08/09 05:29:34;;;;;;;17.25;4.20;;;;;;;18.04;78.35;99253.22;2205918;80;21079;-62
2021/08/09 05:32:36;;;;;;;16.52;4.00;;;;;;;18.09;78.42;99247.88;2204797;80;21563;-62
2021/08/09 05:35:37;;;;;;;16.52;4.40;;;;;;;18.25;78.14;99247.39;2202082;80;21107;-62
2021/08/09 05:38:39;;;;;;;16.93;4.10;;;;;;;18.32;77.85;99247.72;2207716;80;21063;-62
2021/08/09 05:41:40;;;;;;;12.70;3.77;;;;;;;18.30;77.55;99242.54;2198098;80;21031;-63
2021/08/09 05:44:42;;;;;;;13.35;3.90;;;;;;;18.36;76.14;99253.13;2183108;80;20980;-62
2021/08/09 05:47:44;;;;;;;13.32;3.65;;;;;;;18.42;76.14;99248.59;2203924;80;21027;-62
2021/08/09 05:50:45;;;;;;;12.93;3.87;;;;;;;18.54;76.36;99251.98;2205644;80;21076;-62
2021/08/09 05:53:47;;;;;;;14.73;3.50;;;;;;;18.74;75.99;99251.56;2188386;80;21047;-62
2021/08/09 05:56:48;;;;;;;11.93;3.40;;;;;;;18.83;74.46;99260.06;2171386;80;21546;-62
2021/08/09 05:59:50;;;;;;;15.13;3.35;;;;;;;18.83;76.13;99251.23;2191701;80;21016;-62
2021/08/09 06:02:52;;;;;;;12.37;3.22;;;;;;;18.98;76.58;99253.89;2203471;80;21019;-62
2021/08/09 06:05:54;;;;;;;11.40;3.42;;;;;;;19.16;73.71;99251.39;2201490;80;21064;-62
2021/08/09 06:08:55;;;;;;;;;;;;;;;19.26;74.79;99257.22;2205702;80;21531;-62
2021/08/09 06:11:57;;;;;;;10.15;3.22;;;;;;;19.40;73.22;99262.13;2201446;80;20089;-63
2021/08/09 06:14:58;;;;;;;10.88;3.30;;;;;;;19.53;73.07;99264.00;2202128;81;20996;-62
2021/08/09 06:18:00;;;;;;;10.80;2.90;;;;;;;19.63;73.15;99263.18;2201800;81;21543;-62
2021/08/09 06:21:02;;;;;;;14.30;3.27;;;;;;;19.73;71.45;99279.47;2204873;80;21000;-63
2021/08/09 06:24:03;;;;;;;11.68;3.27;;;;;;;19.57;71.61;99268.57;2204730;80;21152;-62
2021/08/09 06:27:04;;;;;;;13.95;3.45;;;;;;;19.54;71.14;99255.05;2202928;80;20993;-62
2021/08/09 06:30:06;;;;;;;13.30;3.22;;;;;;;19.60;71.92;99265.62;2204990;80;21072;-62
2021/08/09 06:33:07;;;;;;;8.80;2.72;;;;;;;19.60;70.43;99266.12;2205336;80;21720;-62
2021/08/09 06:36:09;;;;;;;11.88;2.85;;;;;;;19.64;70.35;99261.70;2202112;80;21041;-62
2021/08/09 06:39:12;;;;;;;13.03;3.25;;;;;;;19.90;70.82;99271.80;2209222;79;21554;-61
2021/08/09 06:42:13;;;;;;;11.97;3.27;;;;;;;20.06;71.01;99266.70;2238203;79;21068;-62
2021/08/09 06:45:15;;;;;;;9.28;2.80;;;;;;;20.30;70.74;99265.39;2239955;79;21012;-61
2021/08/09 06:48:16;;;;;;;8.40;3.00;;;;;;;20.44;69.23;99258.73;2232409;79;21004;-61
2021/08/09 06:51:18;;;;;;;7.65;2.67;;;;;;;20.45;66.56;99275.58;2234714;79;21071;-62
2021/08/09 06:54:20;;;;;;;9.48;2.98;;;;;;;20.43;65.87;99269.89;2235126;79;21057;-62
2021/08/09 06:57:22;;;;;;;8.90;2.65;;;;;;;20.51;67.63;99278.47;2220773;79;21073;-61
2021/08/09 07:00:23;;;;;;;12.15;3.05;;;;;;;20.53;66.77;99280.98;2224394;79;21043;-61
2021/08/09 07:03:24;;;;;;;12.88;2.83;;;;;;;20.71;66.95;99275.77;2237328;79;20997;-62
2021/08/09 07:06:26;;;;;;;6.62;2.15;;;;;;;20.80;66.46;99282.86;2234444;79;20993;-62
2021/08/09 07:09:27;;;;;;;11.18;2.60;;;;;;;20.70;64.33;99279.41;2234620;79;21017;-61
2021/08/09 07:12:29;;;;;;;9.28;2.58;;;;;;;20.68;64.88;99277.40;2234189;79;21517;-62
2021/08/09 07:15:30;;;;;;;9.63;2.72;;;;;;;20.69;65.94;99283.91;2238658;79;21091;-62
2021/08/09 07:18:33;;;;;;;8.50;2.70;;;;;;;20.73;63.92;99276.44;2233626;79;21095;-62
2021/08/09 07:21:34;;;;;;;8.05;2.45;;;;;;;20.88;64.50;99278.97;2233401;79;21002;-61
2021/08/09 07:24:36;;;;;;;8.85;2.58;;;;;;;21.08;62.49;99274.36;2196882;80;21487;-61
2021/08/09 07:27:38;;;;;;;6.85;2.50;;;;;;;21.10;63.26;99272.40;2198826;80;20997;-62
2021/08/09 07:30:40;;;;;;;11.50;2.90;;;;;;;21.13;63.32;99279.73;2197442;80;21110;-62
2021/08/09 07:33:42;;;;;;;9.10;2.37;;;;;;;21.32;63.69;99281.42;2197975;80;21012;-62
2021/08/09 07:36:44;;;;;;;8.88;3.00;;;;;;;21.39;63.68;99274.02;2199952;80;21037;-62
2021/08/09 07:39:46;;;;;;;;;;;;;;;21.51;63.05;99278.66;2195928;80;21071;-61
2021/08/09 07:42:47;;;;;;;10.38;2.87;;;;;;;21.73;63.98;99281.33;2199150;80;20129;-62
2021/08/09 07:45:49;;;;;;;7.72;2.60;;;;;;;21.61;63.39;99277.25;2199078;80;21005;-62
2021/08/09 07:48:50;;;;;;;10.75;2.80;;;;;;;21.83;62.80;99281.75;2200865;80;20977;-62
2021/08/09 07:51:51;;;;;;;8.05;2.37;;;;;;;21.88;61.51;99279.44;2197991;81;21001;-62
2021/08/09 07:54:55;;;;;;;9.43;2.65;;;;;;;21.81;62.52;99288.59;2199344;80;21028;-61
2021/08/09 07:57:56;;;;;;;9.15;2.70;;;;;;;21.86;62.63;99283.60;2194799;80;21076;-61
2021/08/09 08:00:58;;;;;;;6.85;2.47;;;;;;;21.83;62.05;99285.77;2199877;80;21059;-61
2021/08/09 08:03:59;;;;;;;7.22;2.37;;;;;;;22.02;61.89;99288.73;2199390;80;21020;-62
2021/08/09 08:07:01;;;;;;;12.50;2.42;;;;;;;22.08;60.16;99296.97;2201328;80;20981;-62
2021/08/09 08:10:02;;;;;;;11.90;2.42;;;;;;;22.25;59.65;99287.72;2190593;80;21551;-62
2021/08/09 08:13:04;;;;;;;10.43;2.80;;;;;;;22.46;60.62;99298.89;2198485;80;21052;-62
2021/08/09 08:16:07;;;;;;;7.42;2.50;;;;;;;22.51;57.87;99293.58;2183128;80;21010;-62
2021/08/09 08:19:08;;;;;;;11.00;2.35;;;;;;;22.49;59.46;99289.22;2199449;80;21020;-62
2021/08/09 08:22:10;;;;;;;10.28;2.72;;;;;;;22.49;60.55;99293.22;2200049;80;21175;-62
2021/08/09 08:25:11;;;;;;;8.85;2.52;;;;;;;22.57;58.68;99293.78;2197370;80;21605;-61
2021/08/09 08:28:13;;;;;;;7.65;2.25;;;;;;;22.79;58.11;99300.39;2201976;80;21160;-61
2021/08/09 08:31:14;;;;;;;7.00;2.42;;;;;;;22.92;57.80;99286.56;2202839;80;21518;-62
2021/08/09 08:34:16;;;;;;;8.38;2.45;;;;;;;22.84;56.63;99297.22;2198653;80;21021;-61
2021/08/09 08:37:17;;;;;;;6.20;2.08;;;;;;;22.84;57.39;99298.08;2209594;79;21561;-62
2021/08/09 08:40:19;;;;;;;8.83;2.33;;;;;;;23.02;59.00;99298.47;2198255;80;21069;-62
2021/08/09 08:43:20;;;;;;;11.45;2.47;;;;;;;23.30;55.43;99289.72;2201567;80;20996;-61
2021/08/09 08:46:22;;;;;;;;;;;;;;;23.34;58.86;99292.37;2202845;81;21001;-62
2021/08/09 08:49:24;;;;;;;6.58;2.30;;;;;;;23.30;56.85;99298.23;2197373;80;20153;-62
2021/08/09 08:52:25;;;;;;;9.78;2.60;;;;;;;23.16;56.09;99299.72;2197242;80;20996;-62
2021/08/09 08:55:27;;;;;;;10.28;2.45;;;;;;;23.47;57.71;99297.25;2195660;80;21027;-62
2021/08/09 08:58:28;;;;;;;15.60;2.50;;;;;;;23.56;55.10;99299.45;2191897;80;20976;-62
2021/08/09 09:01:30;;;;;;;5.95;2.20;;;;;;;23.63;55.54;99308.98;2203184;80;20992;-61
2021/08/09 09:04:32;;;;;;;7.50;2.40;;;;;;;23.72;55.33;99301.79;2209022;80;21003;-61
2021/08/09 09:07:33;;;;;;;9.25;2.30;;;;;;;23.85;54.40;99299.47;2237569;78;21067;-62
2021/08/09 09:10:35;;;;;;;7.92;2.65;;;;;;;24.15;53.75;99301.13;2190730;80;21136;-62
2021/08/09 09:13:37;;;;;;;;;;;;;;;24.35;52.14;99301.59;2202701;80;21036;-62
2021/08/09 09:16:38;;;;;;;8.80;2.52;;;;;;;24.47;52.25;99298.06;2200100;81;21094;-61
2021/08/09 09:19:41;;;;;;;9.93;2.47;;;;;;;24.35;52.52;99305.61;2203725;80;21004;-62
2021/08/09 09:22:42;;;;;;;6.08;2.15;;;;;;;24.30;50.27;99307.47;2197797;81;21080;-62
2021/08/09 09:25:44;;;;;;;6.92;2.35;;;;;;;24.09;52.28;99301.30;2197478;80;21116;-62
2021/08/09 09:28:45;;;;;;;10.75;2.58;;;;;;;24.25;53.67;99303.62;2201198;80;21003;-61
2021/08/09 09:31:47;;;;;;;8.03;2.20;;;;;;;24.78;51.64;99296.79;2197157;80;21123;-61
2021/08/09 09:34:48;;;;;;;6.30;2.33;;;;;;;24.81;48.38;99308.54;2200507;80;21157;-62
2021/08/09 09:37:50;;;;;;;5.80;1.90;;;;;;;24.57;48.98;99310.77;2199475;80;21076;-61
2021/08/09 09:40:51;;;;;;;6.35;2.22;;;;;;;24.38;48.94;99307.46;2203588;80;21468;-62
2021/08/09 09:43:53;;;;;;;6.97;1.75;;;;;;;24.66;49.43;99308.92;2192994;80;21057;-62
2021/08/09 09:46:54;;;;;;;7.95;2.12;;;;;;;24.65;46.57;99306.76;2200814;80;21012;-61
2021/08/09 09:49:56;;;;;;;6.58;2.17;;;;;;;24.69;50.17;99302.69;2191528;79;21064;-63
2021/08/09 09:52:58;;;;;;;8.83;2.33;;;;;;;25.03;48.81;99298.05;2237351;79;21523;-62
2021/08/09 09:56:00;;;;;;;;;;;;;;;24.99;47.08;99313.64;2233724;79;21067;-63
2021/08/09 09:59:01;;;;;;;6.80;2.10;;;;;;;25.01;48.66;99315.66;2206615;79;20384;-63
2021/08/09 10:02:03;;;;;;;;;;;;;;;25.29;47.76;99299.06;2205673;79;21067;-63
2021/08/09 10:05:04;;;;;;;6.03;2.00;;;;;;;25.32;46.86;99308.13;2189709;80;20084;-63
2021/08/09 10:08:06;;;;;;;9.63;2.40;;;;;;;25.29;48.57;99309.80;2204261;80;21013;-62
2021/08/09 10:11:07;;;;;;;7.85;2.12;;;;;;;25.20;47.38;99302.82;2234534;79;21515;-64
2021/08/09 10:14:09;;;;;;;6.12;2.10;;;;;;;25.25;46.45;99301.25;2229863;79;21003;-63
2021/08/09 10:17:10;;;;;;;6.55;2.05;;;;;;;25.56;46.99;99294.22;2243030;79;21098;-62
2021/08/09 10:20:12;;;;;;;7.70;2.08;;;;;;;25.94;46.63;99292.89;2277888;77;21071;-62
2021/08/09 10:23:13;;;;;;;9.68;2.30;;;;;;;26.15;47.04;99288.20;2281818;77;20993;-63
2021/08/09 10:26:15;;;;;;;4.37;1.98;;;;;;;26.40;45.64;99302.72;2248653;78;21027;-62
2021/08/09 10:29:17;;;;;;;;;;;;;;;26.31;45.41;99303.32;2214262;79;20989;-62
2021/08/09 10:32:19;;;;;;;6.67;2.10;;;;;;;25.92;45.45;99294.41;2208255;79;20107;-62
2021/08/09 10:35:21;;;;;;;8.30;2.08;;;;;;;26.02;47.18;99296.89;2209875;79;21609;-62
2021/08/09 10:38:23;;;;;;;6.10;1.98;;;;;;;26.13;41.49;99302.31;2218884;79;21024;-63
2021/08/09 10:41:24;;;;;;;3.47;1.50;;;;;;;26.18;42.88;99305.30;2218825;79;21459;-63
2021/08/09 10:44:26;;;;;;;8.10;2.00;;;;;;;26.59;44.52;99298.14;2216844;79;21077;-62
2021/08/09 10:47:27;;;;;;;8.68;2.10;;;;;;;26.92;43.19;99295.58;2221067;78;21062;-62
2021/08/09 10:50:29;;;;;;;5.87;1.57;;;;;;;26.83;41.50;99295.38;2257102;78;20949;-62
2021/08/09 10:53:30;;;;;;;7.95;2.25;;;;;;;26.75;41.00;99304.36;2213015;78;21080;-62
2021/08/09 10:56:32;;;;;;;8.63;1.95;;;;;;;26.16;43.04;99302.45;2221374;78;21583;-65
2021/08/09 10:59:33;;;;;;;8.33;1.90;;;;;;;26.11;42.85;99297.64;2215874;78;21048;-65
2021/08/09 11:02:35;;;;;;;7.83;1.80;;;;;;;25.87;41.25;99298.14;2201743;79;21522;-63
2021/08/09 11:05:37;;;;;;;5.10;1.95;;;;;;;25.62;41.19;99304.76;2226609;79;20983;-64
2021/08/09 11:08:39;;;;;;;7.20;1.90;;;;;;;25.70;42.41;99299.30;2226119;78;21534;-62
2021/08/09 11:11:40;;;;;;;6.12;1.85;;;;;;;25.55;41.51;99308.14;2225956;79;20972;-63
2021/08/09 11:14:41;;;;;;;7.10;2.00;;;;;;;25.47;43.42;99301.47;2221771;79;21549;-62
2021/08/09 11:17:43;;;;;;;7.12;1.90;;;;;;;25.20;44.05;99304.16;2217055;79;21015;-63
2021/08/09 11:20:45;;;;;;;5.47;1.72;;;;;;;25.73;41.54;99311.02;2203130;80;21499;-62
2021/08/09 11:23:46;;;;;;;6.53;2.22;;;;;;;26.11;41.93;99306.53;2208895;79;21042;-63
2021/08/09 11:26:48;;;;;;;9.28;1.98;;;;;;;26.57;40.52;99310.11;2204719;79;21035;-63
2021/08/09 11:29:49;;;;;;;4.50;1.70;;;;;;;26.33;40.56;99319.27;2208080;79;20996;-63
2021/08/09 11:32:51;;;;;;;7.10;1.98;;;;;;;26.33;40.56;99319.27;2221439;78;21007;-62
2021/08/09 11:35:52;;;;;;;7.45;2.05;;;;;;;26.76;41.47;99320.31;2242185;78;21434;-63
2021/08/09 11:38:53;;;;;;;6.17;1.55;;;;;;;26.89;39.23;99315.62;2223187;78;21008;-62
2021/08/09 11:41:55;;;;;;;9.35;2.00;;;;;;;26.78;39.62;99318.29;2213334;79;21039;-63
2021/08/09 11:44:57;;;;;;;5.70;1.87;;;;;;;26.82;41.29;99312.53;2250319;77;21020;-62
2021/08/09 11:47:58;;;;;;;16.37;2.50;;;;;;;27.00;40.33;99315.66;2212013;79;21040;-63
2021/08/09 11:51:00;;;;;;;5.60;1.82;;;;;;;26.99;39.48;99315.85;2210395;79;21013;-62
2021/08/09 11:54:03;;;;;;;6.20;1.75;;;;;;;27.07;39.02;99315.75;2217384;79;21084;-63
2021/08/09 11:57:04;;;;;;;7.28;1.90;;;;;;;27.13;39.26;99306.91;2235508;79;21049;-62
2021/08/09 12:00:06;;;;;;;7.00;1.85;;;;;;;27.46;39.41;99308.64;2244645;78;21001;-62
2021/08/09 12:03:08;;;;;;;2.85;1.75;;;;;;;27.46;39.41;99308.64;2286439;77;21050;-62
2021/08/09 12:06:09;;;;;;;7.55;2.00;;;;;;;27.16;39.46;99305.70;2281452;77;20969;-62
2021/08/09 12:09:13;;;;;;;6.33;2.00;;;;;;;27.12;40.16;99315.52;2285994;77;26354;-62
2021/08/09 12:12:15;;;;;;;5.03;1.90;;;;;;;27.33;39.29;99308.48;2255954;77;21027;-62
2021/08/09 12:15:16;;;;;;;4.95;2.00;;;;;;;27.63;38.44;99311.10;2186439;80;20996;-62
2021/08/09 12:18:17;;;;;;;8.80;1.72;;;;;;;27.34;39.74;99312.88;2179451;80;21036;-62
2021/08/09 12:21:19;;;;;;;7.00;1.82;;;;;;;27.60;38.47;99307.45;2183613;80;21088;-63
2021/08/09 12:24:21;;;;;;;;;;;;;;;27.88;38.32;99304.78;2185841;80;21043;-62
2021/08/09 12:27:23;;;;;;;;;;;;;;;28.31;37.93;99300.67;2216675;80;20112;-62
2021/08/09 12:30:24;;;;;;;4.75;1.40;;;;;;;28.67;37.76;99286.17;2231490;79;20444;-62
2021/08/09 12:33:26;;;;;;;8.93;2.10;;;;;;;28.20;35.49;99303.91;2269271;77;21009;-65
2021/08/09 12:36:27;;;;;;;;;;;;;;;27.96;34.76;99300.60;2214391;78;22138;-63
2021/08/09 12:39:29;;;;;;;7.37;2.00;;;;;;;27.29;37.57;99305.32;2249790;77;20135;-66
2021/08/09 12:42:30;;;;;;;6.97;1.98;;;;;;;27.28;37.58;99299.64;2248056;78;21487;-63
2021/08/09 12:45:32;;;;;;;5.50;1.95;;;;;;;27.40;38.05;99296.48;2239468;79;21005;-62
2021/08/09 12:48:33;;;;;;;5.47;1.42;;;;;;;27.68;36.82;99288.96;2239086;79;21009;-65
2021/08/09 12:51:35;;;;;;;4.70;1.67;;;;;;;27.22;35.01;99297.69;2214555;79;21049;-61
2021/08/09 12:54:36;;;;;;;6.17;1.92;;;;;;;27.02;39.13;99299.32;2245442;79;21077;-63
2021/08/09 12:57:38;;;;;;;6.87;1.82;;;;;;;27.17;37.93;99285.33;2250540;77;20999;-62
2021/08/09 13:00:39;;;;;;;;;;;;;;;27.48;36.36;99283.72;2250999;78;20969;-63
2021/08/09 13:03:41;;;;;;;3.50;1.40;;;;;;;27.75;38.91;99287.98;2235556;79;20180;-63
2021/08/09 13:06:42;;;;;;;5.80;1.60;;;;;;;27.85;35.83;99281.44;2205748;80;20977;-64
2021/08/09 13:09:44;;;;;;;5.70;1.70;;;;;;;28.05;36.54;99284.33;2224198;77;21022;-63
2021/08/09 13:12:45;;;;;;;;;;;;;;;28.56;37.21;99280.48;2242686;79;20988;-64
2021/08/09 13:15:47;;;;;;;5.42;1.50;;;;;;;28.52;33.19;99280.06;2237866;79;20107;-62
2021/08/09 13:18:48;;;;;;;5.15;1.32;;;;;;;28.13;34.57;99286.36;2209655;80;21051;-64
2021/08/09 13:21:50;;;;;;;4.45;1.77;;;;;;;27.72;34.48;99292.41;2230168;79;21016;-64
2021/08/09 13:24:52;;;;;;;;;;;;;;;27.69;36.21;99283.91;2212473;80;21498;-64
2021/08/09 13:27:55;;;;;;;6.95;1.80;;;;;;;27.74;34.21;99285.48;2237858;78;20105;-63
2021/08/09 13:30:56;;;;;;;6.47;1.87;;;;;;;27.76;34.09;99282.09;2207484;79;21009;-63
2021/08/09 13:33:58;;;;;;;;;;;;;;;27.95;34.72;99286.80;2239707;79;21018;-63
2021/08/09 13:36:59;;;;;;;5.25;1.82;;;;;;;27.92;35.50;99280.45;2245852;79;20122;-62
2021/08/09 13:40:01;;;;;;;4.60;1.85;;;;;;;28.24;35.82;99274.70;2243186;79;21020;-63
2021/08/09 13:43:02;;;;;;;;;;;;;;;28.79;35.18;99271.61;2246640;78;21015;-63
2021/08/09 13:46:04;;;;;;;3.80;1.37;;;;;;;29.04;33.52;99273.24;2276628;77;20214;-63
2021/08/09 13:49:05;;;;;;;;;;;;;;;28.93;31.97;99279.22;2283891;77;20993;-64
2021/08/09 13:52:07;;;;;;;3.87;1.35;;;;;;;28.56;34.00;99279.14;2223752;79;20095;-62
2021/08/09 13:55:08;;;;;;;5.30;1.77;;;;;;;28.48;33.01;99272.05;2241933;79;21023;-62
2021/08/09 13:58:10;;;;;;;;;;;;;;;28.58;32.40;99272.52;2246287;79;21122;-64
2021/08/09 14:01:11;;;;;;;7.67;1.70;;;;;;;28.66;34.14;99269.69;2235267;79;20114;-62
2021/08/09 14:04:12;;;;;;;;;;;;;;;29.04;32.16;99267.84;2225164;79;21008;-63
2021/08/09 14:07:14;;;;;;;7.53;1.62;;;;;;;28.56;31.31;99274.59;2217854;79;20121;-63
2021/08/09 14:10:15;;;;;;;;;;;;;;;28.13;30.50;99278.27;2217021;79;21558;-63
2021/08/09 14:13:17;;;;;;;4.62;1.35;;;;;;;28.09;33.13;99274.82;2214737;80;20123;-62
2021/08/09 14:16:18;;;;;;;;;;;;;;;28.30;32.39;99270.71;2215623;79;21008;-63